createdAt,value
2022-11-29T00:01:11.555Z,7.65
2022-11-29T00:03:38.278Z,7.03
2022-11-29T00:06:05.003Z,6.72
2022-11-29T00:08:31.680Z,7.53
2022-11-29T00:10:58.361Z,7.43
2022-11-29T00:13:25.054Z,6.82
2022-11-29T00:15:51.730Z,7.20
2022-11-29T00:18:18.377Z,7.28
2022-11-29T00:20:45.070Z,7.93
2022-11-29T00:23:11.721Z,7.65
2022-11-29T00:25:38.414Z,8.18
2022-11-29T00:28:05.168Z,8.23
2022-11-29T00:30:31.893Z,10.18
2022-11-29T00:33:13.350Z,9.48
2022-11-29T00:35:40.058Z,13.43
2022-11-29T00:38:06.737Z,17.25
2022-11-29T00:40:33.393Z,16.73
2022-11-29T00:43:00.113Z,17.92
2022-11-29T00:45:26.793Z,18.50
2022-11-29T00:47:53.437Z,18.83
2022-11-29T00:50:20.094Z,19.45
2022-11-29T00:52:46.839Z,18.85
2022-11-29T00:55:13.521Z,19.65
2022-11-29T00:57:40.222Z,18.85
2022-11-29T01:00:06.927Z,20.45
2022-11-29T01:02:33.716Z,19.13
2022-11-29T01:05:00.521Z,18.55
2022-11-29T01:07:27.227Z,17.95
2022-11-29T01:09:53.899Z,16.60
2022-11-29T01:12:20.587Z,15.95
2022-11-29T01:14:47.403Z,16.45
2022-11-29T01:17:14.139Z,16.05
2022-11-29T01:19:41.709Z,17.20
2022-11-29T01:22:10.922Z,17.20
2022-11-29T01:24:37.658Z,16.33
2022-11-29T01:27:04.412Z,16.92
2022-11-29T01:29:31.131Z,18.55
2022-11-29T01:31:57.819Z,17.23
2022-11-29T01:34:24.513Z,17.20
2022-11-29T01:36:51.199Z,17.17
2022-11-29T01:39:17.852Z,17.10
2022-11-29T01:41:44.508Z,17.42
2022-11-29T01:44:11.179Z,16.98
2022-11-29T01:46:38.078Z,15.50
2022-11-29T01:49:04.767Z,16.95
2022-11-29T01:51:31.458Z,17.65
2022-11-29T01:53:58.147Z,18.10
2022-11-29T01:56:24.879Z,17.95
2022-11-29T01:58:51.555Z,17.55
2022-11-29T02:01:18.304Z,15.88
2022-11-29T02:03:45.019Z,18.40
2022-11-29T02:06:11.762Z,17.48
2022-11-29T02:08:38.435Z,17.08
2022-11-29T02:11:05.130Z,18.10
2022-11-29T02:13:31.843Z,17.70
2022-11-29T02:15:58.548Z,18.45
2022-11-29T02:18:25.266Z,18.92
2022-11-29T02:20:51.951Z,19.40
2022-11-29T02:23:18.687Z,19.13
2022-11-29T02:25:45.418Z,19.08
2022-11-29T02:28:12.102Z,19.40
2022-11-29T02:30:38.917Z,19.58
2022-11-29T02:33:05.679Z,20.88
2022-11-29T02:35:32.359Z,20.45
2022-11-29T02:37:59.078Z,20.75
2022-11-29T02:40:25.762Z,21.02
2022-11-29T02:42:56.450Z,21.77
2022-11-29T02:45:23.764Z,20.98
2022-11-29T02:47:50.463Z,21.55
2022-11-29T02:50:17.121Z,21.38
2022-11-29T02:52:43.881Z,21.88
2022-11-29T02:55:10.601Z,21.88
2022-11-29T02:57:37.438Z,20.60
2022-11-29T03:00:04.220Z,21.25
2022-11-29T03:02:31.334Z,21.77
2022-11-29T03:04:58.081Z,20.98
2022-11-29T03:07:24.921Z,20.80
2022-11-29T03:09:51.678Z,20.55
2022-11-29T03:12:18.343Z,20.70
2022-11-29T03:14:45.251Z,19.95
2022-11-29T03:17:12.209Z,20.23
2022-11-29T03:19:38.923Z,21.00
2022-11-29T03:22:05.594Z,19.95
2022-11-29T03:24:32.329Z,19.60
2022-11-29T03:26:58.997Z,21.13
2022-11-29T03:29:25.769Z,19.98
2022-11-29T03:31:52.474Z,21.05
2022-11-29T03:34:19.179Z,20.83
2022-11-29T03:36:45.973Z,20.40
2022-11-29T03:39:12.701Z,19.75
2022-11-29T03:41:39.355Z,20.08
2022-11-29T03:44:06.067Z,19.38
2022-11-29T03:46:32.764Z,19.50
2022-11-29T03:48:59.546Z,19.67
2022-11-29T03:51:26.276Z,20.08
2022-11-29T03:53:52.957Z,22.42
2022-11-29T03:56:19.690Z,22.15
2022-11-29T03:58:46.482Z,22.65
2022-11-29T04:01:13.166Z,20.40
2022-11-29T04:03:39.875Z,19.40
2022-11-29T04:06:06.592Z,19.42
2022-11-29T04:08:33.265Z,17.98
2022-11-29T04:10:59.967Z,18.73
2022-11-29T04:13:26.679Z,17.90
2022-11-29T04:15:53.391Z,17.20
2022-11-29T04:18:20.165Z,18.75
2022-11-29T04:20:48.331Z,17.58
2022-11-29T04:23:15.403Z,17.90
2022-11-29T04:25:42.060Z,18.80
2022-11-29T04:28:08.747Z,17.38
2022-11-29T04:30:35.451Z,18.08
2022-11-29T04:33:02.124Z,18.38
2022-11-29T04:35:28.827Z,19.73
2022-11-29T04:37:55.544Z,20.08
2022-11-29T04:40:22.244Z,17.83
2022-11-29T04:42:48.939Z,20.05
2022-11-29T04:45:15.601Z,18.30
2022-11-29T04:47:42.306Z,17.13
2022-11-29T04:50:09.074Z,18.33
2022-11-29T04:52:35.804Z,20.25
2022-11-29T04:55:02.490Z,18.88
2022-11-29T04:57:29.163Z,19.15
2022-11-29T04:59:55.895Z,18.15
2022-11-29T05:02:22.697Z,17.20
2022-11-29T05:04:49.460Z,16.73
2022-11-29T05:07:16.170Z,16.55
2022-11-29T05:09:42.980Z,16.52
2022-11-29T05:12:09.739Z,17.17
2022-11-29T05:14:36.481Z,17.45
2022-11-29T05:17:03.151Z,16.92
2022-11-29T05:19:29.888Z,17.55
2022-11-29T05:21:56.619Z,15.82
2022-11-29T05:24:23.310Z,16.73
2022-11-29T05:26:50.354Z,16.98
2022-11-29T05:29:17.084Z,15.65
2022-11-29T05:31:43.750Z,15.43
2022-11-29T05:34:10.482Z,17.17
2022-11-29T05:36:38.294Z,16.73
2022-11-29T05:39:04.979Z,17.98
2022-11-29T05:41:31.673Z,16.90
2022-11-29T05:43:58.327Z,17.55
2022-11-29T05:46:25.107Z,16.98
2022-11-29T05:48:51.965Z,16.63
2022-11-29T05:51:18.654Z,16.40
2022-11-29T05:53:45.458Z,18.13
2022-11-29T05:56:12.102Z,17.88
2022-11-29T05:58:38.862Z,18.83
2022-11-29T06:01:05.615Z,18.10
2022-11-29T06:03:32.369Z,18.20
2022-11-29T06:06:00.691Z,16.08
2022-11-29T06:08:29.435Z,15.80
2022-11-29T06:10:56.544Z,14.65
2022-11-29T06:13:23.359Z,15.40
2022-11-29T06:15:50.141Z,14.82
2022-11-29T06:18:16.966Z,15.57
2022-11-29T06:20:43.765Z,15.68
2022-11-29T06:23:10.696Z,13.95
2022-11-29T06:25:38.247Z,13.73
2022-11-29T06:28:05.322Z,11.02
2022-11-29T06:30:33.177Z,11.13
2022-11-29T06:33:01.296Z,10.50
2022-11-29T06:35:28.031Z,11.00
2022-11-29T06:37:54.701Z,13.20
2022-11-29T06:40:21.420Z,12.60
2022-11-29T06:42:49.015Z,12.77
2022-11-29T06:45:15.706Z,11.70
2022-11-29T06:47:42.485Z,12.82
2022-11-29T06:50:09.268Z,12.57
2022-11-29T06:52:35.997Z,13.93
2022-11-29T06:55:02.974Z,13.68
2022-11-29T06:57:29.843Z,12.60
2022-11-29T06:59:56.561Z,11.75
2022-11-29T07:02:23.342Z,9.30
2022-11-29T07:04:50.246Z,9.93
2022-11-29T07:07:17.134Z,8.85
2022-11-29T07:09:43.839Z,8.13
2022-11-29T07:12:10.571Z,9.32
2022-11-29T07:14:37.255Z,11.60
2022-11-29T07:17:04.015Z,11.52
2022-11-29T07:19:30.725Z,12.35
2022-11-29T07:21:57.411Z,12.60
2022-11-29T07:24:24.081Z,12.05
2022-11-29T07:26:55.148Z,12.23
2022-11-29T07:29:24.834Z,12.90
2022-11-29T07:31:51.545Z,12.35
2022-11-29T07:34:18.321Z,11.95
2022-11-29T07:36:45.046Z,11.63
2022-11-29T07:39:11.691Z,10.90
2022-11-29T07:41:38.442Z,12.43
2022-11-29T07:44:05.107Z,11.48
2022-11-29T07:46:31.914Z,12.43
2022-11-29T07:48:58.724Z,12.07
2022-11-29T07:51:25.389Z,10.98
2022-11-29T07:53:52.125Z,11.63
2022-11-29T07:56:18.934Z,10.50
2022-11-29T07:58:45.736Z,10.70
2022-11-29T08:01:12.836Z,11.85
2022-11-29T08:03:39.715Z,11.93
2022-11-29T08:06:06.391Z,12.10
2022-11-29T08:08:33.059Z,12.15
2022-11-29T08:10:59.766Z,11.50
2022-11-29T08:13:26.559Z,11.45
2022-11-29T08:15:53.283Z,11.52
2022-11-29T08:18:19.974Z,12.30
2022-11-29T08:20:46.691Z,12.80
2022-11-29T08:23:13.439Z,9.65
2022-11-29T08:25:40.157Z,11.30
2022-11-29T08:28:06.907Z,11.38
2022-11-29T08:30:33.645Z,11.52
2022-11-29T08:33:00.351Z,13.05
2022-11-29T08:35:27.103Z,13.60
2022-11-29T08:37:53.795Z,12.90
2022-11-29T08:40:20.511Z,13.25
2022-11-29T08:42:47.301Z,14.93
2022-11-29T08:45:14.026Z,12.73
2022-11-29T08:47:42.269Z,13.57
2022-11-29T08:50:10.156Z,13.13
2022-11-29T08:52:55.742Z,14.05
2022-11-29T08:55:28.952Z,13.73
2022-11-29T08:57:56.445Z,13.50
2022-11-29T09:00:23.274Z,13.43
2022-11-29T09:02:50.036Z,13.40
2022-11-29T09:05:16.803Z,13.32
2022-11-29T09:07:43.667Z,12.65
2022-11-29T09:10:10.465Z,9.88
2022-11-29T09:12:37.151Z,11.43
2022-11-29T09:15:04.350Z,10.23
2022-11-29T09:17:31.163Z,8.20
2022-11-29T09:19:57.828Z,8.88
2022-11-29T09:22:24.558Z,7.70
2022-11-29T09:24:51.211Z,7.45
2022-11-29T09:27:17.998Z,7.43
2022-11-29T09:29:44.683Z,8.00
2022-11-29T09:32:11.420Z,8.88
2022-11-29T09:34:38.090Z,8.52
2022-11-29T09:37:05.196Z,8.30
2022-11-29T09:39:31.993Z,8.82
2022-11-29T09:41:58.686Z,8.95
2022-11-29T09:44:25.448Z,9.25
2022-11-29T09:46:57.221Z,9.07
2022-11-29T09:49:25.422Z,10.25
2022-11-29T09:51:52.312Z,9.30
2022-11-29T09:54:19.067Z,9.38
2022-11-29T09:56:45.839Z,10.60
2022-11-29T09:59:12.650Z,10.13
2022-11-29T10:01:39.364Z,10.45
2022-11-29T10:04:06.116Z,11.63
2022-11-29T10:06:34.345Z,11.63
2022-11-29T10:09:01.688Z,10.70
2022-11-29T10:11:28.513Z,10.57
2022-11-29T10:13:55.218Z,10.43
2022-11-29T10:16:22.410Z,10.50
2022-11-29T10:18:49.329Z,10.27
2022-11-29T10:21:16.042Z,11.00
2022-11-29T10:23:42.744Z,11.10
2022-11-29T10:26:09.502Z,10.50
2022-11-29T10:28:36.281Z,10.75
2022-11-29T10:31:03.014Z,11.90
2022-11-29T10:33:29.806Z,11.23
2022-11-29T10:35:56.515Z,9.93
2022-11-29T10:38:32.076Z,10.73
2022-11-29T10:40:59.052Z,10.50
2022-11-29T10:43:25.791Z,9.88
2022-11-29T10:45:56.105Z,10.75
2022-11-29T10:48:22.988Z,11.95
2022-11-29T10:50:49.689Z,10.68
2022-11-29T10:53:16.612Z,11.07
2022-11-29T10:55:43.330Z,10.30
2022-11-29T10:58:10.090Z,9.05
2022-11-29T11:00:36.770Z,8.82
2022-11-29T11:03:03.464Z,9.85
2022-11-29T11:05:30.465Z,9.95
2022-11-29T11:07:57.546Z,10.40
2022-11-29T11:10:26.493Z,10.15
2022-11-29T11:12:53.194Z,9.40
2022-11-29T11:15:19.951Z,8.70
2022-11-29T11:17:46.704Z,8.75
2022-11-29T11:20:13.670Z,8.75
2022-11-29T11:22:40.729Z,8.93
2022-11-29T11:25:07.491Z,9.05
2022-11-29T11:27:34.196Z,9.20
2022-11-29T11:30:01.171Z,10.05
2022-11-29T11:32:27.918Z,10.65
2022-11-29T11:34:54.768Z,10.60
2022-11-29T11:37:21.545Z,11.65
2022-11-29T11:39:48.337Z,12.02
2022-11-29T11:42:33.962Z,12.63
2022-11-29T11:45:00.940Z,12.40
2022-11-29T11:47:27.778Z,13.43
2022-11-29T11:49:54.462Z,12.75
2022-11-29T11:52:21.210Z,16.02
2022-11-29T11:54:47.986Z,16.08
2022-11-29T11:57:14.663Z,14.73
2022-11-29T11:59:41.394Z,13.18
2022-11-29T12:02:08.124Z,12.43
2022-11-29T12:04:34.908Z,13.25
2022-11-29T12:07:01.639Z,12.82
2022-11-29T12:09:28.412Z,12.13
2022-11-29T12:11:55.380Z,12.60
2022-11-29T12:14:22.067Z,12.50
2022-11-29T12:16:48.859Z,13.40
2022-11-29T12:19:15.655Z,13.85
2022-11-29T12:21:42.395Z,14.23
2022-11-29T12:24:09.113Z,13.57
2022-11-29T12:26:56.485Z,14.68
2022-11-29T12:29:22.985Z,15.23
2022-11-29T12:31:49.703Z,15.18
2022-11-29T12:34:20.989Z,14.93
2022-11-29T12:36:49.076Z,14.23
2022-11-29T12:39:15.786Z,14.07
2022-11-29T12:41:42.480Z,13.52
2022-11-29T12:44:09.448Z,12.60
2022-11-29T12:46:36.202Z,12.75
2022-11-29T12:49:02.937Z,12.27
2022-11-29T12:51:29.719Z,10.50
2022-11-29T12:53:56.480Z,9.45
2022-11-29T12:56:23.244Z,8.80
2022-11-29T12:58:49.966Z,8.23
2022-11-29T13:01:16.770Z,7.72
2022-11-29T13:03:43.500Z,7.35
2022-11-29T13:06:10.252Z,8.43
2022-11-29T13:08:36.961Z,7.90
2022-11-29T13:11:03.863Z,7.55
2022-11-29T13:13:30.596Z,7.97
2022-11-29T13:15:57.320Z,7.85
2022-11-29T13:18:24.171Z,7.72
2022-11-29T13:20:50.897Z,8.13
2022-11-29T13:23:17.605Z,7.72
2022-11-29T13:25:44.377Z,8.15
2022-11-29T13:28:11.116Z,7.95
2022-11-29T13:30:37.906Z,8.52
2022-11-29T13:33:04.644Z,8.25
2022-11-29T13:35:31.396Z,8.65
2022-11-29T13:37:58.206Z,9.45
2022-11-29T13:40:24.905Z,10.18
2022-11-29T13:42:51.678Z,10.63
2022-11-29T13:45:18.437Z,9.65
2022-11-29T13:47:45.110Z,9.32
2022-11-29T13:50:11.837Z,9.38
2022-11-29T13:52:39.000Z,8.85
2022-11-29T13:55:05.663Z,10.45
2022-11-29T13:57:43.133Z,9.65
2022-11-29T14:00:19.095Z,9.98
2022-11-29T14:02:45.821Z,9.90
2022-11-29T14:05:12.509Z,9.18
2022-11-29T14:07:39.229Z,10.40
2022-11-29T14:10:06.011Z,10.02
2022-11-29T14:12:36.796Z,10.25
2022-11-29T14:15:03.676Z,9.07
2022-11-29T14:17:30.623Z,8.80
2022-11-29T14:19:57.473Z,8.32
2022-11-29T14:22:24.269Z,8.82
2022-11-29T14:24:51.227Z,9.32
2022-11-29T14:27:18.340Z,9.35
2022-11-29T14:29:45.244Z,9.15
2022-11-29T14:32:12.125Z,8.25
2022-11-29T14:34:38.924Z,9.15
2022-11-29T14:37:05.573Z,8.23
2022-11-29T14:39:32.362Z,9.00
2022-11-29T14:41:59.149Z,8.77
2022-11-29T14:44:26.130Z,8.95
2022-11-29T14:46:52.929Z,9.45
2022-11-29T14:49:19.597Z,9.00
2022-11-29T14:51:46.369Z,9.23
2022-11-29T14:54:15.915Z,8.80
2022-11-29T14:56:42.764Z,9.43
2022-11-29T14:59:09.555Z,9.02
2022-11-29T15:01:36.426Z,9.35
2022-11-29T15:04:05.570Z,8.52
2022-11-29T15:06:38.159Z,10.02
2022-11-29T15:09:08.270Z,9.95
2022-11-29T15:11:34.996Z,8.75
2022-11-29T15:14:01.664Z,8.98
2022-11-29T15:16:28.432Z,8.63
2022-11-29T15:18:55.547Z,9.52
2022-11-29T15:21:22.266Z,8.90
2022-11-29T15:23:48.981Z,9.85
2022-11-29T15:26:17.977Z,8.05
2022-11-29T15:28:44.723Z,8.77
2022-11-29T15:31:12.089Z,8.73
2022-11-29T15:33:38.828Z,9.45
2022-11-29T15:36:05.543Z,8.75
2022-11-29T15:38:32.232Z,8.82
2022-11-29T15:40:59.019Z,9.55
2022-11-29T15:43:26.292Z,9.45
2022-11-29T15:45:54.173Z,9.75
2022-11-29T15:48:20.965Z,9.75
2022-11-29T15:50:47.695Z,10.45
2022-11-29T15:53:14.374Z,10.25
2022-11-29T15:55:41.119Z,10.50
2022-11-29T15:58:09.042Z,11.40
2022-11-29T16:00:35.909Z,11.23
2022-11-29T16:03:02.646Z,13.40
2022-11-29T16:05:29.321Z,13.07
2022-11-29T16:07:56.229Z,12.82
2022-11-29T16:10:22.951Z,13.07
2022-11-29T16:12:52.238Z,12.48
2022-11-29T16:15:18.914Z,13.57
2022-11-29T16:17:45.638Z,13.35
2022-11-29T16:20:12.437Z,13.52
2022-11-29T16:22:39.182Z,13.82
2022-11-29T16:25:05.860Z,14.43
2022-11-29T16:27:33.090Z,14.38
2022-11-29T16:29:59.937Z,13.90
2022-11-29T16:32:26.752Z,14.57
2022-11-29T16:34:53.768Z,14.27
2022-11-29T16:37:20.520Z,13.93
2022-11-29T16:39:47.277Z,14.15
2022-11-29T16:42:14.286Z,13.60
2022-11-29T16:44:41.587Z,14.10
2022-11-29T16:47:08.867Z,14.75
2022-11-29T16:49:35.618Z,15.30
2022-11-29T16:52:02.355Z,15.02
2022-11-29T16:54:31.802Z,14.40
2022-11-29T16:56:58.543Z,14.00
2022-11-29T16:59:27.393Z,14.98
2022-11-29T17:01:54.816Z,13.90
2022-11-29T17:04:23.762Z,13.55
2022-11-29T17:06:51.528Z,14.32
2022-11-29T17:09:18.228Z,13.80
2022-11-29T17:11:45.083Z,15.38
2022-11-29T17:14:11.818Z,14.88
2022-11-29T17:16:38.490Z,15.73
2022-11-29T17:19:05.196Z,14.35
2022-11-29T17:21:32.336Z,15.45
2022-11-29T17:23:59.003Z,16.92
2022-11-29T17:26:25.939Z,16.02
2022-11-29T17:28:52.645Z,18.95
2022-11-29T17:31:19.363Z,18.25
2022-11-29T17:33:46.112Z,18.70
2022-11-29T17:36:12.899Z,18.35
2022-11-29T17:38:39.552Z,18.42
2022-11-29T17:41:06.306Z,18.73
2022-11-29T17:43:32.934Z,18.45
2022-11-29T17:46:00.453Z,18.77
2022-11-29T17:48:32.086Z,19.50
2022-11-29T17:51:00.298Z,18.80
2022-11-29T17:53:26.989Z,19.25
2022-11-29T17:55:53.851Z,19.42
2022-11-29T17:58:20.524Z,19.38
2022-11-29T18:00:47.297Z,20.17
2022-11-29T18:03:13.971Z,19.80
2022-11-29T18:05:40.652Z,19.92
2022-11-29T18:08:07.363Z,20.45
2022-11-29T18:10:34.198Z,20.45
2022-11-29T18:13:00.856Z,21.02
2022-11-29T18:15:27.578Z,19.13
2022-11-29T18:17:54.285Z,21.17
2022-11-29T18:20:20.979Z,19.05
2022-11-29T18:22:48.020Z,18.85
2022-11-29T18:25:37.744Z,19.52
2022-11-29T18:28:02.245Z,19.40
2022-11-29T18:30:29.061Z,19.45
2022-11-29T18:32:55.757Z,19.25
2022-11-29T18:35:22.534Z,19.17
2022-11-29T18:38:14.240Z,19.88
2022-11-29T18:40:35.940Z,19.30
2022-11-29T18:43:02.601Z,19.25
2022-11-29T18:45:29.307Z,20.10
2022-11-29T18:47:56.022Z,19.83
2022-11-29T18:50:22.769Z,21.23
2022-11-29T18:52:49.543Z,21.80
2022-11-29T18:55:16.263Z,22.23
2022-11-29T18:57:42.956Z,22.00
2022-11-29T19:00:09.652Z,22.10
2022-11-29T19:02:36.407Z,23.17
2022-11-29T19:05:03.078Z,22.73
2022-11-29T19:07:31.485Z,23.20
2022-11-29T19:09:58.253Z,23.65
2022-11-29T19:12:24.921Z,24.15
2022-11-29T19:14:52.057Z,25.90
2022-11-29T19:17:18.969Z,25.42
2022-11-29T19:19:45.952Z,25.77
2022-11-29T19:22:12.902Z,27.27
2022-11-29T19:24:39.567Z,26.80
2022-11-29T19:27:06.319Z,26.15
2022-11-29T19:29:39.379Z,26.90
2022-11-29T19:32:08.495Z,27.52
2022-11-29T19:34:35.196Z,26.50
2022-11-29T19:37:01.880Z,27.08
2022-11-29T19:39:29.336Z,27.92
2022-11-29T19:41:56.122Z,28.27
2022-11-29T19:44:27.969Z,27.27
2022-11-29T19:46:56.639Z,27.92
2022-11-29T19:49:23.278Z,27.88
2022-11-29T19:51:50.084Z,26.75
2022-11-29T19:54:16.845Z,27.77
2022-11-29T19:56:43.691Z,24.77
2022-11-29T19:59:10.353Z,26.20
2022-11-29T20:01:41.321Z,26.90
2022-11-29T20:04:08.931Z,25.38
2022-11-29T20:06:35.680Z,26.83
2022-11-29T20:09:02.518Z,28.10
2022-11-29T20:11:29.244Z,28.05
2022-11-29T20:13:55.941Z,27.42
2022-11-29T20:16:22.738Z,25.63
2022-11-29T20:18:51.182Z,25.88
2022-11-29T20:21:19.180Z,27.23
2022-11-29T20:23:45.948Z,26.83
2022-11-29T20:26:12.639Z,27.05
2022-11-29T20:28:39.770Z,27.48
2022-11-29T20:31:06.571Z,27.92
2022-11-29T20:33:33.508Z,27.70
2022-11-29T20:36:00.356Z,27.23
2022-11-29T20:38:27.196Z,26.90
2022-11-29T20:40:58.154Z,29.23
2022-11-29T20:43:27.970Z,28.48
2022-11-29T20:45:54.901Z,28.38
2022-11-29T20:48:21.716Z,28.75
2022-11-29T20:50:48.419Z,28.30
2022-11-29T20:53:15.078Z,27.88
2022-11-29T20:55:47.686Z,28.50
2022-11-29T20:58:14.973Z,27.98
2022-11-29T21:00:41.731Z,32.22
2022-11-29T21:03:08.447Z,28.02
2022-11-29T21:05:35.114Z,28.48
2022-11-29T21:08:01.993Z,28.15
2022-11-29T21:10:28.763Z,28.25
2022-11-29T21:12:56.123Z,27.38
2022-11-29T21:15:22.833Z,29.13
2022-11-29T21:17:49.521Z,28.58
2022-11-29T21:20:16.220Z,27.50
2022-11-29T21:22:42.916Z,27.67
2022-11-29T21:25:09.788Z,29.35
2022-11-29T21:27:36.603Z,29.35
2022-11-29T21:30:03.684Z,28.83
2022-11-29T21:32:30.953Z,29.30
2022-11-29T21:34:57.710Z,28.67
2022-11-29T21:37:24.431Z,29.70
2022-11-29T21:39:51.553Z,29.77
2022-11-29T21:42:18.312Z,29.45
2022-11-29T21:44:47.652Z,29.40
2022-11-29T21:47:14.521Z,29.35
2022-11-29T21:49:41.239Z,29.65
2022-11-29T21:52:07.905Z,29.73
2022-11-29T21:54:34.675Z,28.73
2022-11-29T21:57:01.793Z,30.38
2022-11-29T21:59:28.524Z,29.77
2022-11-29T22:01:55.359Z,30.65
2022-11-29T22:04:22.203Z,29.70
2022-11-29T22:06:48.863Z,30.13
2022-11-29T22:09:15.642Z,29.83
2022-11-29T22:11:42.349Z,30.60
2022-11-29T22:14:15.706Z,29.67
2022-11-29T22:16:42.505Z,31.70
2022-11-29T22:19:10.087Z,31.60
2022-11-29T22:21:36.959Z,30.55
2022-11-29T22:24:03.672Z,30.73
2022-11-29T22:26:30.386Z,30.00
2022-11-29T22:28:57.659Z,29.73
2022-11-29T22:31:24.395Z,30.10
2022-11-29T22:33:51.082Z,30.08
2022-11-29T22:36:17.829Z,29.60
2022-11-29T22:38:44.538Z,30.27
2022-11-29T22:41:18.593Z,29.02
2022-11-29T22:43:45.336Z,30.38
2022-11-29T22:46:12.152Z,30.73
2022-11-29T22:48:39.299Z,29.67
2022-11-29T22:51:06.657Z,30.30
2022-11-29T22:53:33.341Z,29.60
2022-11-29T22:56:00.126Z,30.52
2022-11-29T22:58:26.875Z,29.65
2022-11-29T23:00:53.582Z,29.63
2022-11-29T23:03:20.329Z,29.85
2022-11-29T23:05:47.009Z,30.42
2022-11-29T23:08:13.736Z,29.83
2022-11-29T23:10:40.437Z,31.13
2022-11-29T23:13:07.159Z,29.30
2022-11-29T23:15:33.894Z,30.35
2022-11-29T23:18:00.639Z,30.42
2022-11-29T23:20:27.332Z,30.70
2022-11-29T23:22:54.131Z,28.77
2022-11-29T23:25:20.869Z,29.38
2022-11-29T23:27:47.616Z,28.63
2022-11-29T23:30:14.366Z,28.13
2022-11-29T23:32:41.042Z,28.17
2022-11-29T23:35:07.825Z,29.58
2022-11-29T23:37:34.536Z,27.42
2022-11-29T23:40:01.213Z,29.65
2022-11-29T23:42:27.922Z,29.05
2022-11-29T23:44:54.659Z,28.30
2022-11-29T23:47:21.369Z,29.90
2022-11-29T23:49:48.155Z,27.25
2022-11-29T23:52:14.876Z,28.30
2022-11-29T23:54:41.548Z,27.15
2022-11-29T23:57:08.293Z,27.75
2022-11-29T23:59:35.050Z,26.42
